Time;durP1;ratioP1;P1;durP2;ratioP2;P2;SDS_P1;SDS_P2;PMS_P1;PMS_P2;Temp;Humidity;BMP_temperature;BMP_pressure;BME280_temperature;BME280_humidity;BME280_pressure;Samples;Min_cycle;Max_cycle;Signal;HPM_P1;HPM_P2
2023/08/24 00:01:26;;;;;;;6.80;6.10;;;21.70;99.90;;;;;;5011065;28;20412;-84
2023/08/24 00:03:52;;;;;;;6.63;6.13;;;21.70;99.90;;;;;;5011115;28;20413;-84
2023/08/24 00:06:18;;;;;;;7.00;6.30;;;21.50;99.90;;;;;;5010562;28;20541;-84
2023/08/24 00:08:44;;;;;;;6.40;5.87;;;21.50;99.90;;;;;;5012043;28;20389;-84
2023/08/24 00:11:14;;;;;;;6.97;6.28;;;21.60;99.90;;;;;;5018322;28;20768;-84
2023/08/24 00:13:48;;;;;;;6.50;6.00;;;21.60;99.90;;;;;;5010884;28;20919;-84
2023/08/24 00:16:15;;;;;;;7.00;6.30;;;21.60;99.90;;;;;;5014488;28;20401;-84
2023/08/24 00:18:40;;;;;;;7.20;6.50;;;21.40;99.90;;;;;;5015167;28;20522;-85
2023/08/24 00:21:07;;;;;;;7.10;6.50;;;21.50;99.90;;;;;;5013490;28;20472;-84
2023/08/24 00:23:33;;;;;;;6.07;5.57;;;21.50;99.90;;;;;;5013385;28;20389;-83
2023/08/24 00:25:59;;;;;;;7.10;6.50;;;21.50;99.90;;;;;;5012505;28;20472;-84
2023/08/24 00:28:25;;;;;;;6.70;6.10;;;21.40;99.90;;;;;;5012435;28;20496;-84
2023/08/24 00:30:51;;;;;;;6.90;6.20;;;21.40;99.90;;;;;;5012330;28;20385;-84
2023/08/24 00:33:17;;;;;;;6.55;6.00;;;21.40;99.90;;;;;;5012130;28;20427;-84
2023/08/24 00:35:42;;;;;;;7.00;6.40;;;21.20;99.90;;;;;;5011737;28;20476;-84
2023/08/24 00:38:08;;;;;;;6.53;5.93;;;21.20;99.90;;;;;;5010482;28;20571;-84
2023/08/24 00:40:34;;;;;;;7.60;6.40;;;21.10;99.90;;;;;;5010323;28;20412;-85
2023/08/24 00:42:59;;;;;;;6.97;6.37;;;20.80;99.90;;;;;;5012380;28;20435;-84
2023/08/24 00:45:25;;;;;;;6.73;6.13;;;21.20;99.90;;;;;;5010760;28;20796;-83
2023/08/24 00:47:52;;;;;;;7.47;6.47;;;21.20;99.90;;;;;;5011988;28;20470;-84
2023/08/24 00:50:17;;;;;;;6.50;5.90;;;21.30;99.90;;;;;;5010388;28;20435;-84
2023/08/24 00:52:43;;;;;;;6.28;5.68;;;21.20;99.90;;;;;;5011329;28;20439;-84
2023/08/24 00:55:10;;;;;;;6.20;5.70;;;21.00;99.90;;;;;;5011764;28;20948;-84
2023/08/24 00:57:37;;;;;;;6.50;6.00;;;21.10;99.90;;;;;;5009767;28;20927;-83
2023/08/24 01:00:05;;;;;;;6.20;5.70;;;21.20;99.90;;;;;;5010053;28;20396;-84
2023/08/24 01:02:31;;;;;;;6.50;6.00;;;21.10;99.90;;;;;;5010952;28;20749;-84
2023/08/24 01:04:58;;;;;;;6.07;5.47;;;21.10;99.90;;;;;;5010801;28;20951;-84
2023/08/24 01:07:24;;;;;;;6.20;5.70;;;21.20;99.90;;;;;;5010479;28;20389;-84
2023/08/24 01:09:50;;;;;;;6.47;5.88;;;21.10;99.90;;;;;;5009722;28;20401;-84
2023/08/24 01:12:46;;;;;;;5.70;5.28;;;21.10;99.90;;;;;;5010110;28;20951;-84
2023/08/24 01:15:26;;;;;;;6.10;5.60;;;21.10;99.90;;;;;;5010241;28;20397;-83
2023/08/24 01:17:54;;;;;;;6.18;5.78;;;21.00;99.90;;;;;;5012445;28;20387;-84
2023/08/24 01:20:20;;;;;;;6.73;6.03;;;21.10;99.90;;;;;;5011208;28;20496;-84
2023/08/24 01:23:09;;;;;;;6.55;5.90;;;21.00;99.90;;;;;;5010476;28;21221;-84
2023/08/24 01:25:40;;;;;;;6.00;5.50;;;21.00;99.90;;;;;;5011839;28;20384;-83
2023/08/24 01:28:06;;;;;;;6.45;5.85;;;20.90;99.90;;;;;;5010545;28;20392;-84
2023/08/24 01:30:35;;;;;;;6.05;5.55;;;21.00;99.90;;;;;;5011456;28;20487;-83
2023/08/24 01:33:03;;;;;;;6.63;5.90;;;21.00;99.90;;;;;;5011294;28;20455;-84
2023/08/24 01:35:28;;;;;;;6.60;5.90;;;21.00;99.90;;;;;;5013650;28;20396;-84
2023/08/24 01:37:54;;;;;;;6.07;5.57;;;20.90;99.90;;;;;;5013622;28;20400;-83
2023/08/24 01:40:50;;;;;;;6.20;5.70;;;21.00;99.90;;;;;;5010929;28;20393;-84
2023/08/24 01:43:20;;;;;;;6.20;5.60;;;21.00;99.90;;;;;;5010993;28;20809;-84
2023/08/24 01:45:47;;;;;;;5.72;5.25;;;21.00;99.90;;;;;;5011856;28;20773;-83
2023/08/24 01:48:13;;;;;;;6.10;5.60;;;20.40;99.90;;;;;;5010475;28;20815;-83
2023/08/24 01:50:39;;;;;;;5.80;5.30;;;21.00;99.90;;;;;;5011316;28;20400;-84
2023/08/24 01:53:05;;;;;;;5.50;5.10;;;21.00;99.90;;;;;;5011304;28;20780;-84
2023/08/24 01:55:30;;;;;;;5.68;5.18;;;21.00;99.90;;;;;;5011086;28;20389;-84
2023/08/24 01:57:56;;;;;;;5.83;5.33;;;21.10;99.90;;;;;;5010933;28;20476;-84
2023/08/24 02:00:22;;;;;;;6.40;5.80;;;21.10;99.90;;;;;;5009443;28;20403;-85
2023/08/24 02:02:48;;;;;;;5.80;5.30;;;21.20;99.90;;;;;;5009759;28;20495;-83
2023/08/24 02:05:13;;;;;;;5.55;5.05;;;21.20;99.90;;;;;;5008738;28;20404;-84
2023/08/24 02:07:42;;;;;;;5.90;5.50;;;21.10;99.90;;;;;;5009841;28;20377;-84
2023/08/24 02:10:08;;;;;;;5.80;5.30;;;21.00;99.90;;;;;;5009040;28;20922;-84
2023/08/24 02:12:33;;;;;;;5.53;5.13;;;20.90;99.90;;;;;;5011301;28;20408;-84
2023/08/24 02:14:59;;;;;;;6.13;5.50;;;21.10;99.90;;;;;;5011087;28;20391;-84
2023/08/24 02:17:26;;;;;;;5.80;5.30;;;21.10;99.90;;;;;;5009832;28;20471;-84
2023/08/24 02:19:52;;;;;;;5.50;5.00;;;21.00;99.90;;;;;;5009350;28;20463;-84
2023/08/24 02:22:17;;;;;;;5.63;5.10;;;21.10;99.90;;;;;;5011397;28;20467;-84
2023/08/24 02:24:43;;;;;;;5.43;4.97;;;21.10;99.90;;;;;;5010134;28;20399;-84
2023/08/24 02:27:09;;;;;;;5.75;5.30;;;21.10;99.90;;;;;;5011302;28;20396;-84
2023/08/24 02:29:34;;;;;;;5.60;5.10;;;21.40;99.90;;;;;;5008877;28;20393;-84
2023/08/24 02:32:00;;;;;;;6.00;5.40;;;21.10;99.90;;;;;;5009933;28;20535;-84
2023/08/24 02:34:26;;;;;;;6.70;6.10;;;21.20;99.90;;;;;;5009073;28;20389;-84
2023/08/24 02:36:51;;;;;;;5.97;5.47;;;21.20;99.90;;;;;;5009817;28;20393;-84
2023/08/24 02:39:17;;;;;;;6.05;5.55;;;21.10;99.90;;;;;;5008720;28;20385;-84
2023/08/24 02:41:42;;;;;;;5.40;4.90;;;21.10;99.90;;;;;;5009861;28;20400;-84
2023/08/24 02:44:08;;;;;;;5.75;5.35;;;21.10;99.90;;;;;;5008718;28;20483;-84
2023/08/24 02:46:33;;;;;;;5.60;5.10;;;21.20;99.90;;;;;;5009648;28;20404;-84
2023/08/24 02:49:00;;;;;;;5.50;4.97;;;21.20;99.90;;;;;;5008530;28;20392;-84
2023/08/24 02:51:25;;;;;;;5.90;5.30;;;21.20;99.90;;;;;;5008466;28;20411;-84
2023/08/24 02:53:51;;;;;;;5.80;5.30;;;21.20;99.90;;;;;;5010368;28;20388;-84
2023/08/24 02:56:17;;;;;;;6.00;5.50;;;21.00;99.90;;;;;;5009554;28;20515;-84
2023/08/24 02:58:42;;;;;;;5.70;5.30;;;21.00;99.90;;;;;;5008219;28;20388;-84
2023/08/24 03:01:08;;;;;;;6.60;6.00;;;20.90;99.90;;;;;;5010045;28;20385;-84
2023/08/24 03:03:35;;;;;;;6.22;5.72;;;21.00;99.90;;;;;;5010947;28;20411;-84
2023/08/24 03:06:05;;;;;;;6.10;5.60;;;21.00;99.90;;;;;;5010616;28;20400;-84
2023/08/24 03:08:32;;;;;;;6.50;5.90;;;21.00;99.90;;;;;;5009262;28;20483;-84
2023/08/24 03:10:59;;;;;;;6.25;5.75;;;20.90;99.90;;;;;;5008914;28;20740;-83
2023/08/24 03:13:25;;;;;;;6.03;5.45;;;21.00;99.90;;;;;;5010480;28;20901;-84
2023/08/24 03:15:52;;;;;;;5.95;5.45;;;20.90;99.90;;;;;;5008707;28;20400;-84
2023/08/24 03:18:18;;;;;;;5.80;5.20;;;20.80;99.90;;;;;;5011390;28;20400;-84
2023/08/24 03:20:48;;;;;;;5.90;5.40;;;20.80;99.90;;;;;;5012775;28;20393;-84
2023/08/24 03:23:14;;;;;;;6.30;5.70;;;20.70;99.90;;;;;;5012266;28;20500;-84
2023/08/24 03:25:41;;;;;;;6.72;6.13;;;20.60;99.90;;;;;;5013772;28;20424;-84
2023/08/24 03:28:08;;;;;;;6.40;5.90;;;20.50;99.90;;;;;;5012373;28;20566;-84
2023/08/24 03:30:37;;;;;;;7.00;6.40;;;20.40;99.90;;;;;;5014201;28;20434;-84
2023/08/24 03:33:04;;;;;;;6.15;5.57;;;20.40;99.90;;;;;;5014914;28;20441;-83
2023/08/24 03:35:31;;;;;;;6.60;6.00;;;20.40;99.90;;;;;;5013358;28;20404;-84
2023/08/24 03:37:56;;;;;;;6.20;5.60;;;20.50;99.90;;;;;;5017033;28;20747;-84
2023/08/24 03:40:22;;;;;;;6.68;6.07;;;20.50;99.90;;;;;;5016498;28;20384;-84
2023/08/24 03:42:47;;;;;;;6.10;5.60;;;19.50;99.90;;;;;;5014023;28;21181;-84
2023/08/24 03:45:13;;;;;;;6.90;6.00;;;20.40;99.90;;;;;;5013371;28;20409;-84
2023/08/24 03:47:38;;;;;;;6.60;6.10;;;20.40;99.90;;;;;;5015198;28;20389;-84
2023/08/24 03:50:05;;;;;;;6.60;6.10;;;20.30;99.90;;;;;;5015041;28;20403;-84
2023/08/24 03:52:31;;;;;;;7.67;6.60;;;20.20;99.90;;;;;;5015291;28;20417;-84
2023/08/24 03:54:57;;;;;;;6.13;5.63;;;20.30;99.90;;;;;;5014613;28;20461;-83
2023/08/24 03:57:22;;;;;;;6.50;5.90;;;20.30;99.90;;;;;;5014693;28;20478;-84
2023/08/24 03:59:47;;;;;;;6.83;6.23;;;20.20;99.90;;;;;;5015204;28;20404;-83
2023/08/24 04:02:13;;;;;;;6.70;6.15;;;20.20;99.90;;;;;;5013905;28;20474;-84
2023/08/24 04:04:38;;;;;;;6.80;6.20;;;20.20;99.90;;;;;;5017440;28;20431;-84
2023/08/24 04:07:05;;;;;;;6.28;5.40;;;20.20;99.90;;;;;;5016234;28;20388;-82
2023/08/24 04:09:30;;;;;;;6.25;5.65;;;20.50;99.90;;;;;;5016281;28;20443;-85
2023/08/24 04:11:56;;;;;;;6.73;6.03;;;20.50;99.90;;;;;;5017124;28;20435;-84
2023/08/24 04:14:21;;;;;;;6.60;6.00;;;20.50;99.90;;;;;;5015216;28;20393;-84
2023/08/24 04:16:47;;;;;;;6.07;5.57;;;20.50;99.90;;;;;;5015758;28;20422;-84
2023/08/24 04:19:13;;;;;;;6.40;5.90;;;20.50;99.90;;;;;;5014031;28;20444;-84
2023/08/24 04:21:38;;;;;;;6.45;5.95;;;20.70;99.90;;;;;;5015796;28;20397;-84
2023/08/24 04:24:04;;;;;;;6.50;5.90;;;20.50;99.90;;;;;;5014588;28;20404;-84
2023/08/24 04:26:30;;;;;;;6.60;5.90;;;20.50;99.90;;;;;;5014550;28;20407;-84
2023/08/24 04:28:56;;;;;;;7.10;5.60;;;20.40;99.90;;;;;;5014127;28;20392;-84
2023/08/24 04:31:21;;;;;;;5.70;5.30;;;20.70;99.90;;;;;;5014478;28;20389;-84
2023/08/24 04:33:47;;;;;;;6.13;5.53;;;20.50;99.90;;;;;;5013950;28;20812;-84
2023/08/24 04:36:12;;;;;;;6.25;5.65;;;20.40;99.90;;;;;;5015264;28;20401;-84
2023/08/24 04:38:38;;;;;;;6.73;6.10;;;20.40;99.90;;;;;;5012679;28;20389;-83
2023/08/24 04:41:07;;;;;;;6.50;5.90;;;20.30;99.90;;;;;;5014175;28;20741;-83
2023/08/24 04:43:33;;;;;;;6.63;5.60;;;20.40;99.90;;;;;;5013156;28;20749;-84
2023/08/24 04:45:58;;;;;;;6.38;5.65;;;20.40;99.90;;;;;;5013798;28;20412;-83
2023/08/24 04:48:26;;;;;;;6.10;5.50;;;20.40;99.90;;;;;;5014699;28;20408;-84
2023/08/24 04:50:53;;;;;;;7.00;6.40;;;20.40;99.90;;;;;;5012784;28;20784;-83
2023/08/24 04:53:20;;;;;;;5.90;5.40;;;20.50;99.90;;;;;;5013265;28;20412;-82
2023/08/24 04:55:46;;;;;;;6.80;5.80;;;20.50;99.90;;;;;;5013959;28;20380;-83
2023/08/24 04:58:13;;;;;;;6.30;5.70;;;20.50;99.90;;;;;;5012895;28;20943;-83
2023/08/24 05:00:39;;;;;;;6.57;5.40;;;20.60;99.90;;;;;;5013720;28;20467;-83
2023/08/24 05:03:05;;;;;;;5.70;5.30;;;20.70;99.90;;;;;;5012253;28;20825;-82
2023/08/24 05:05:32;;;;;;;5.88;5.28;;;20.60;99.90;;;;;;5014160;28;20428;-82
2023/08/24 05:07:59;;;;;;;6.80;6.20;;;20.60;99.90;;;;;;5013304;28;20399;-82
2023/08/24 05:10:25;;;;;;;6.10;5.50;;;20.60;99.90;;;;;;5016723;28;20381;-83
2023/08/24 05:12:50;;;;;;;6.40;5.80;;;20.60;99.90;;;;;;5012922;28;20409;-82
2023/08/24 05:15:16;;;;;;;6.18;5.57;;;20.70;99.90;;;;;;5020775;28;20423;-82
2023/08/24 05:17:42;;;;;;;6.35;5.85;;;20.80;99.90;;;;;;5031342;28;20477;-82
2023/08/24 05:20:10;;;;;;;6.70;5.80;;;20.80;99.90;;;;;;5021083;28;20400;-82
2023/08/24 05:22:36;;;;;;;6.50;5.80;;;20.80;99.90;;;;;;5022567;28;20393;-82
2023/08/24 05:25:02;;;;;;;6.00;5.50;;;20.80;99.90;;;;;;5015020;28;20399;-83
2023/08/24 05:27:27;;;;;;;5.60;5.20;;;20.90;99.90;;;;;;5014756;28;20398;-82
2023/08/24 05:29:53;;;;;;;6.80;5.60;;;20.90;99.90;;;;;;5012049;28;20408;-83
2023/08/24 05:32:18;;;;;;;5.80;5.30;;;21.00;99.90;;;;;;5012884;28;20971;-82
2023/08/24 05:34:45;;;;;;;6.10;5.60;;;20.90;99.90;;;;;;5013698;28;20392;-83
2023/08/24 05:37:11;;;;;;;9.25;7.45;;;21.00;99.90;;;;;;5015585;28;20477;-82
2023/08/24 05:39:37;;;;;;;5.78;5.35;;;21.00;99.90;;;;;;5014216;28;20492;-82
2023/08/24 05:42:02;;;;;;;5.97;5.47;;;21.00;99.90;;;;;;5014171;28;20408;-82
2023/08/24 05:44:28;;;;;;;5.63;5.13;;;21.20;99.90;;;;;;5018360;28;20944;-82
2023/08/24 05:46:53;;;;;;;6.20;5.60;;;21.20;99.90;;;;;;5054365;23;20436;-81
2023/08/24 05:49:19;;;;;;;6.20;5.60;;;21.20;99.90;;;;;;5049666;28;20378;-84
2023/08/24 05:51:44;;;;;;;7.80;6.20;;;21.30;99.90;;;;;;5054501;28;20412;-84
2023/08/24 05:54:10;;;;;;;6.57;6.03;;;21.30;99.90;;;;;;5067275;28;20459;-84
2023/08/24 05:56:35;;;;;;;5.70;5.20;;;21.30;99.90;;;;;;5067343;28;20404;-84
2023/08/24 05:59:01;;;;;;;6.45;5.40;;;21.50;99.90;;;;;;5065581;28;20761;-82
2023/08/24 06:01:27;;;;;;;7.60;5.90;;;21.70;99.90;;;;;;5071294;28;20378;-83
2023/08/24 06:03:52;;;;;;;5.78;5.30;;;21.80;99.90;;;;;;5072940;28;20433;-82
2023/08/24 06:06:18;;;;;;;6.67;5.90;;;21.70;99.90;;;;;;5070154;28;20470;-82
2023/08/24 06:08:43;;;;;;;6.60;6.00;;;21.70;99.90;;;;;;5070702;28;20416;-83
2023/08/24 06:11:09;;;;;;;6.60;6.00;;;21.80;99.90;;;;;;5069754;28;20940;-83
2023/08/24 06:13:35;;;;;;;7.18;6.53;;;22.00;99.90;;;;;;5065573;28;20406;-84
2023/08/24 06:16:01;;;;;;;7.00;6.40;;;22.00;99.90;;;;;;5066607;28;20405;-83
2023/08/24 06:18:27;;;;;;;8.82;7.60;;;22.00;99.90;;;;;;5050993;28;20436;-84
2023/08/24 06:20:53;;;;;;;7.20;6.60;;;22.00;99.90;;;;;;5067871;28;20381;-83
2023/08/24 06:23:19;;;;;;;7.70;7.10;;;22.00;99.90;;;;;;5049852;28;20558;-83
2023/08/24 06:25:45;;;;;;;8.35;7.07;;;22.00;99.90;;;;;;5074588;28;20385;-83
2023/08/24 06:28:11;;;;;;;8.45;7.20;;;22.20;99.90;;;;;;5076696;28;20436;-83
2023/08/24 06:30:39;;;;;;;7.95;7.25;;;22.00;99.90;;;;;;5076156;28;20452;-83
2023/08/24 06:33:05;;;;;;;8.43;7.63;;;22.10;99.90;;;;;;5076128;28;20413;-84
2023/08/24 06:35:31;;;;;;;8.40;7.60;;;22.20;99.90;;;;;;5059078;28;20448;-83
2023/08/24 06:37:57;;;;;;;8.10;7.40;;;22.60;99.90;;;;;;5076025;28;20409;-82
2023/08/24 06:40:22;;;;;;;7.10;6.40;;;22.20;99.90;;;;;;5069902;28;20393;-83
2023/08/24 06:42:48;;;;;;;7.32;6.63;;;22.30;99.90;;;;;;5067752;28;20405;-83
2023/08/24 06:45:14;;;;;;;7.37;6.77;;;22.30;99.90;;;;;;5068035;28;20405;-84
2023/08/24 06:47:39;;;;;;;7.25;6.65;;;22.40;99.90;;;;;;5046607;28;20457;-84
2023/08/24 06:50:06;;;;;;;7.30;6.70;;;22.50;99.90;;;;;;5030526;28;20394;-84
2023/08/24 06:52:32;;;;;;;7.80;7.00;;;22.50;99.90;;;;;;5049446;28;20399;-84
2023/08/24 06:54:57;;;;;;;7.22;6.53;;;22.50;99.90;;;;;;5052228;28;20394;-83
2023/08/24 06:57:23;;;;;;;7.17;6.47;;;22.40;99.90;;;;;;5068823;28;20415;-84
2023/08/24 06:59:49;;;;;;;7.10;5.73;;;22.40;99.90;;;;;;5054360;28;20476;-83
2023/08/24 07:02:15;;;;;;;6.55;5.90;;;22.60;99.90;;;;;;5069174;28;20409;-83
2023/08/24 07:04:41;;;;;;;7.20;6.60;;;22.50;99.90;;;;;;5059559;28;20420;-82
2023/08/24 07:07:07;;;;;;;7.32;6.55;;;22.50;99.90;;;;;;5062788;28;20867;-82
2023/08/24 07:09:32;;;;;;;9.57;7.20;;;22.50;99.90;;;;;;5050270;28;20391;-82
2023/08/24 07:11:58;;;;;;;8.10;7.00;;;22.60;99.90;;;;;;5050866;28;20653;-82
2023/08/24 07:14:23;;;;;;;8.00;7.28;;;22.60;99.90;;;;;;5068712;28;20431;-82
2023/08/24 07:16:49;;;;;;;7.60;6.90;;;22.70;99.90;;;;;;5068680;28;20382;-82
2023/08/24 07:19:14;;;;;;;10.30;6.72;;;22.70;99.90;;;;;;5068885;28;20377;-82
2023/08/24 07:21:40;;;;;;;10.50;7.57;;;22.60;99.90;;;;;;5050179;28;20390;-82
2023/08/24 07:24:06;;;;;;;8.70;7.40;;;22.70;99.90;;;;;;5068447;28;20395;-82
2023/08/24 07:26:31;;;;;;;10.67;7.50;;;22.80;99.90;;;;;;5069111;28;20462;-83
2023/08/24 07:28:57;;;;;;;9.20;7.00;;;22.90;99.90;;;;;;5068166;28;20393;-82
2023/08/24 07:31:22;;;;;;;8.03;7.33;;;23.10;99.90;;;;;;5070991;28;20404;-83
2023/08/24 07:33:48;;;;;;;8.30;7.50;;;23.10;99.90;;;;;;5073412;28;20416;-83
2023/08/24 07:36:15;;;;;;;7.77;6.97;;;23.10;99.90;;;;;;5070597;28;21033;-83
2023/08/24 07:38:40;;;;;;;8.60;7.70;;;23.20;99.90;;;;;;5050840;28;20402;-83
2023/08/24 07:41:06;;;;;;;9.27;7.27;;;23.30;99.90;;;;;;5055195;28;20379;-82
2023/08/24 07:43:32;;;;;;;6.85;6.15;;;23.40;99.90;;;;;;5064997;28;20448;-83
2023/08/24 07:45:59;;;;;;;7.00;6.30;;;23.40;99.90;;;;;;5074373;28;20440;-82
2023/08/24 07:48:25;;;;;;;6.85;6.25;;;23.50;99.90;;;;;;5052459;28;20409;-82
2023/08/24 07:50:51;;;;;;;6.40;5.77;;;23.70;99.90;;;;;;5069229;28;20401;-81
2023/08/24 07:53:16;;;;;;;5.70;5.30;;;23.80;99.90;;;;;;5048874;28;20467;-81
2023/08/24 07:55:43;;;;;;;6.82;5.88;;;24.00;99.90;;;;;;5047042;28;20398;-82
2023/08/24 07:58:08;;;;;;;6.47;5.88;;;24.10;99.90;;;;;;5060738;28;20461;-83
2023/08/24 08:00:34;;;;;;;6.43;5.72;;;24.10;99.90;;;;;;5051798;28;20401;-81
2023/08/24 08:03:00;;;;;;;8.53;5.93;;;24.40;99.90;;;;;;5040994;28;20427;-83
2023/08/24 08:05:26;;;;;;;6.93;6.10;;;24.60;99.90;;;;;;5065600;28;20401;-82
2023/08/24 08:07:52;;;;;;;6.30;5.70;;;24.70;99.90;;;;;;5066036;28;20765;-82
2023/08/24 08:10:17;;;;;;;6.35;5.85;;;24.80;99.90;;;;;;5055156;28;20387;-82
2023/08/24 08:12:43;;;;;;;5.93;5.43;;;24.90;99.90;;;;;;5028490;28;20461;-82
2023/08/24 08:15:09;;;;;;;5.65;5.20;;;24.80;99.90;;;;;;5058077;28;20407;-82
2023/08/24 08:17:34;;;;;;;6.87;5.80;;;24.70;99.90;;;;;;5045738;28;20461;-83
2023/08/24 08:20:00;;;;;;;6.40;5.80;;;24.80;99.90;;;;;;5067151;28;20381;-83
2023/08/24 08:22:25;;;;;;;6.20;5.70;;;24.80;99.90;;;;;;5067390;28;20385;-83
2023/08/24 08:24:54;;;;;;;6.28;5.70;;;24.70;99.90;;;;;;5032132;28;20387;-83
2023/08/24 08:27:21;;;;;;;6.70;6.10;;;24.70;99.90;;;;;;5054582;28;20496;-83
2023/08/24 08:29:46;;;;;;;6.60;6.00;;;24.80;99.90;;;;;;5067619;28;20521;-83
2023/08/24 08:32:12;;;;;;;6.10;5.60;;;24.90;99.90;;;;;;5067663;28;20435;-83
2023/08/24 08:34:38;;;;;;;5.87;5.47;;;25.10;99.90;;;;;;5048338;28;20393;-83
2023/08/24 08:37:03;;;;;;;7.40;5.70;;;25.20;99.90;;;;;;5066962;28;20381;-83
2023/08/24 08:39:30;;;;;;;5.82;5.32;;;25.40;99.90;;;;;;5066723;28;20381;-83
2023/08/24 08:41:55;;;;;;;6.05;5.03;;;25.00;1.00;;;;;;5066947;28;20407;-83
2023/08/24 08:44:22;;;;;;;5.53;5.13;;;25.30;1.00;;;;;;5067488;28;20397;-83
2023/08/24 08:46:49;;;;;;;6.10;5.50;;;25.40;98.50;;;;;;5047882;28;20405;-83
2023/08/24 08:49:16;;;;;;;5.47;5.03;;;25.50;99.90;;;;;;5066272;28;20408;-82
2023/08/24 08:51:42;;;;;;;5.90;5.30;;;25.60;99.90;;;;;;5050205;28;20390;-83
2023/08/24 08:54:08;;;;;;;6.13;5.63;;;25.80;99.90;;;;;;5067133;28;20445;-82
2023/08/24 08:56:33;;;;;;;8.93;5.50;;;25.70;99.90;;;;;;5063458;28;20388;-83
2023/08/24 08:59:00;;;;;;;6.00;5.40;;;25.80;99.90;;;;;;5061936;28;20385;-83
2023/08/24 09:01:27;;;;;;;6.70;6.10;;;26.00;99.90;;;;;;5061627;28;20873;-83
2023/08/24 09:03:54;;;;;;;6.00;5.40;;;26.30;99.90;;;;;;5062350;28;20409;-83
2023/08/24 09:06:20;;;;;;;8.67;5.80;;;26.20;99.90;;;;;;5065741;28;20765;-83
2023/08/24 09:08:47;;;;;;;6.40;5.60;;;26.20;99.90;;;;;;5066410;28;20468;-83
2023/08/24 09:11:14;;;;;;;7.70;6.73;;;26.20;99.90;;;;;;5066656;28;20503;-83
2023/08/24 09:13:39;;;;;;;10.75;6.50;;;26.10;99.90;;;;;;5065679;28;20409;-83
2023/08/24 09:16:06;;;;;;;7.32;6.30;;;25.90;99.90;;;;;;5066587;28;20400;-83
2023/08/24 09:18:39;;;;;;;7.07;5.82;;;26.00;99.90;;;;;;5048798;28;20465;-83
2023/08/24 09:21:09;;;;;;;7.93;6.20;;;26.10;99.90;;;;;;5066736;28;20395;-84
2023/08/24 09:23:35;;;;;;;6.80;6.20;;;26.20;99.90;;;;;;5067522;28;20450;-83
2023/08/24 09:26:00;;;;;;;7.80;6.63;;;26.30;99.90;;;;;;5067862;28;20389;-84
2023/08/24 09:28:26;;;;;;;9.18;6.40;;;26.20;99.90;;;;;;5049055;28;20393;-84
2023/08/24 09:30:54;;;;;;;7.00;6.40;;;26.40;99.90;;;;;;5048585;28;20394;-83
2023/08/24 09:33:22;;;;;;;7.13;6.45;;;26.40;99.90;;;;;;5066360;28;20401;-84
2023/08/24 09:35:52;;;;;;;6.77;6.17;;;26.50;99.90;;;;;;5065754;28;20465;-83
2023/08/24 09:38:19;;;;;;;6.90;6.20;;;26.50;99.90;;;;;;5065984;28;20409;-83
2023/08/24 09:40:51;;;;;;;6.90;6.30;;;26.70;99.90;;;;;;5046727;28;20393;-81
2023/08/24 09:43:18;;;;;;;6.95;6.35;;;26.50;99.90;;;;;;5056585;28;20414;-82
2023/08/24 09:45:51;;;;;;;6.57;5.97;;;26.40;99.90;;;;;;5047541;28;20393;-82
2023/08/24 09:48:17;;;;;;;7.30;6.60;;;26.70;99.90;;;;;;5046838;28;20463;-82
2023/08/24 09:50:48;;;;;;;6.75;6.25;;;26.70;99.90;;;;;;5064440;28;20390;-82
2023/08/24 09:53:23;;;;;;;8.32;6.65;;;26.70;99.90;;;;;;5046982;28;20889;-82
2023/08/24 09:55:54;;;;;;;7.82;6.93;;;26.80;99.90;;;;;;5064648;28;20461;-82
2023/08/24 09:58:21;;;;;;;6.57;6.00;;;27.00;6.60;;;;;;5063599;28;20392;-82
2023/08/24 10:00:48;;;;;;;6.80;6.25;;;27.10;1.00;;;;;;5063287;28;20389;-81
2023/08/24 10:03:20;;;;;;;7.40;6.70;;;27.10;1.00;;;;;;5045977;28;20800;-81
2023/08/24 10:05:49;;;;;;;7.32;6.63;;;27.00;94.60;;;;;;5057356;28;20491;-82
2023/08/24 10:08:18;;;;;;;6.90;6.28;;;27.10;1.00;;;;;;5055748;28;20508;-77
2023/08/24 10:10:45;;;;;;;6.60;5.97;;;27.30;1.00;;;;;;5036958;28;20753;-80
2023/08/24 10:13:21;;;;;;;7.90;6.50;;;27.50;1.00;;;;;;5053667;28;20405;-80
2023/08/24 10:15:48;;;;;;;7.38;6.60;;;27.60;1.00;;;;;;5039265;28;20400;-82
2023/08/24 10:18:16;;;;;;;7.60;6.57;;;27.50;1.00;;;;;;5054200;28;20464;-78
2023/08/24 10:20:43;;;;;;;7.60;6.90;;;27.60;1.00;;;;;;5052631;28;20408;-79
2023/08/24 10:23:11;;;;;;;7.17;6.57;;;27.50;1.00;;;;;;5053676;28;20405;-82
2023/08/24 10:25:38;;;;;;;7.40;6.80;;;27.70;1.00;;;;;;5060682;28;20408;-79
2023/08/24 10:28:05;;;;;;;6.97;6.28;;;27.70;1.00;;;;;;5050602;28;20396;-80
2023/08/24 10:30:31;;;;;;;7.22;6.53;;;27.50;1.00;;;;;;5057055;28;20396;-80
2023/08/24 10:32:58;;;;;;;9.30;6.60;;;27.90;1.00;;;;;;5057715;28;20409;-81
2023/08/24 10:35:25;;;;;;;9.20;6.50;;;27.90;1.00;;;;;;5057113;28;21029;-79
2023/08/24 10:37:53;;;;;;;7.20;6.60;;;28.20;1.00;;;;;;5057268;28;20388;-80
2023/08/24 10:40:35;;;;;;;6.90;6.20;;;28.20;1.00;;;;;;5046134;28;20393;-80
2023/08/24 10:43:05;;;;;;;7.05;6.38;;;28.20;1.00;;;;;;5067296;28;20435;-78
2023/08/24 10:45:56;;;;;;;7.00;6.30;;;28.10;1.00;;;;;;5068565;28;20485;-80
2023/08/24 10:48:23;;;;;;;6.70;6.20;;;28.40;1.00;;;;;;5061594;28;20420;-79
2023/08/24 10:51:14;;;;;;;6.80;6.10;;;28.70;1.00;;;;;;5039364;28;20420;-81
2023/08/24 10:53:41;;;;;;;6.93;6.25;;;28.60;1.00;;;;;;5044943;28;20429;-81
2023/08/24 10:56:17;;;;;;;7.00;6.50;;;28.40;1.00;;;;;;5063842;28;20896;-80
2023/08/24 10:58:44;;;;;;;6.75;6.15;;;28.60;1.00;;;;;;5041351;28;20453;-80
2023/08/24 11:01:17;;;;;;;6.00;5.40;;;28.50;1.00;;;;;;5036980;28;20402;-80
2023/08/24 11:03:50;;;;;;;6.50;6.00;;;28.80;1.00;;;;;;5018926;28;20458;-79
2023/08/24 11:06:22;;;;;;;6.70;5.82;;;28.80;1.00;;;;;;5036739;28;20470;-81
2023/08/24 11:08:49;;;;;;;8.45;6.45;;;29.20;1.00;;;;;;5036213;28;20414;-79
2023/08/24 11:11:22;;;;;;;6.95;6.35;;;29.40;1.00;;;;;;5035289;28;20468;-80
2023/08/24 11:14:13;;;;;;;7.20;6.60;;;29.10;1.00;;;;;;5056403;28;20436;-81
2023/08/24 11:16:40;;;;;;;6.60;5.90;;;29.40;1.00;;;;;;5038114;28;20888;-80
2023/08/24 11:19:06;;;;;;;6.68;6.07;;;29.60;1.00;;;;;;5055512;28;20389;-81
2023/08/24 11:21:34;;;;;;;8.00;5.70;;;29.80;1.00;;;;;;5055958;28;20789;-81
2023/08/24 11:24:00;;;;;;;6.07;5.68;;;29.90;1.00;;;;;;5056216;28;20385;-80
2023/08/24 11:26:26;;;;;;;6.07;5.68;;;30.00;1.00;;;;;;5056119;28;20455;-81
2023/08/24 11:28:55;;;;;;;7.18;5.95;;;30.30;1.00;;;;;;5056154;28;20393;-81
2023/08/24 11:31:21;;;;;;;5.90;5.37;;;30.60;1.00;;;;;;5055745;28;20389;-81
2023/08/24 11:33:46;;;;;;;6.10;5.60;;;31.00;1.00;;;;;;5055472;28;20508;-80
2023/08/24 11:36:12;;;;;;;5.73;5.33;;;31.20;1.00;;;;;;5055177;28;20417;-81
2023/08/24 11:38:42;;;;;;;7.47;5.07;;;31.30;1.00;;;;;;5054335;28;20823;-81
2023/08/24 11:41:18;;;;;;;6.80;5.43;;;31.80;1.00;;;;;;5055487;28;20942;-81
2023/08/24 11:43:45;;;;;;;5.80;5.20;;;31.90;1.00;;;;;;5026334;28;20395;-81
2023/08/24 11:46:12;;;;;;;5.20;4.80;;;31.80;1.00;;;;;;5071704;23;20821;-81
2023/08/24 11:48:39;;;;;;;4.97;4.60;;;32.50;1.00;;;;;;5008338;28;20760;-82
2023/08/24 11:51:09;;;;;;;5.32;4.93;;;32.40;1.00;;;;;;5012336;28;20479;-82
2023/08/24 11:53:45;;;;;;;5.30;4.90;;;32.20;1.00;;;;;;5011288;28;20414;-83
2023/08/24 11:56:12;;;;;;;5.70;5.07;;;33.00;1.00;;;;;;5014258;28;20402;-82
2023/08/24 11:58:42;;;;;;;5.05;4.65;;;33.50;1.00;;;;;;5000758;28;20390;-83
2023/08/24 12:01:11;;;;;;;4.57;4.25;;;33.90;1.00;;;;;;5016946;28;20405;-83
2023/08/24 12:03:40;;;;;;;5.40;5.00;;;34.00;1.00;;;;;;5001925;28;20933;-82
2023/08/24 12:06:15;;;;;;;4.80;4.40;;;33.90;1.00;;;;;;4999540;28;20444;-83
2023/08/24 12:08:41;;;;;;;5.00;4.60;;;33.70;1.00;;;;;;4998303;28;20386;-83
2023/08/24 12:11:37;;;;;;;5.45;4.95;;;33.20;1.00;;;;;;5010476;28;20398;-83
2023/08/24 12:14:03;;;;;;;6.63;5.13;;;33.70;1.00;;;;;;5002394;28;20925;-82
2023/08/24 12:16:32;;;;;;;5.80;5.30;;;33.20;1.00;;;;;;5000427;28;20402;-82
2023/08/24 12:19:00;;;;;;;5.57;5.00;;;33.20;1.00;;;;;;4999264;28;20383;-83
2023/08/24 12:21:26;;;;;;;5.65;4.80;;;33.10;1.00;;;;;;4989628;28;20402;-82
2023/08/24 12:23:59;;;;;;;5.68;4.90;;;33.00;1.00;;;;;;4991137;28;20856;-82
2023/08/24 12:26:26;;;;;;;5.50;5.10;;;33.20;1.00;;;;;;5001760;28;20382;-83
2023/08/24 12:28:52;;;;;;;6.90;5.60;;;33.50;1.00;;;;;;4999781;28;20898;-82
2023/08/24 12:31:25;;;;;;;6.20;5.70;;;33.50;1.00;;;;;;4999546;28;20390;-82
2023/08/24 12:34:00;;;;;;;5.80;5.20;;;33.00;1.00;;;;;;5014032;28;20406;-83
2023/08/24 12:36:25;;;;;;;6.60;5.50;;;33.30;1.00;;;;;;4999154;28;20919;-83
2023/08/24 12:38:51;;;;;;;5.40;4.90;;;33.60;1.00;;;;;;4997886;28;20447;-83
2023/08/24 12:41:16;;;;;;;5.47;5.07;;;33.90;1.00;;;;;;4998264;28;20398;-83
2023/08/24 12:43:42;;;;;;;5.60;5.00;;;34.00;1.00;;;;;;5013319;28;20394;-82
2023/08/24 12:46:07;;;;;;;5.57;5.10;;;33.80;1.00;;;;;;5013695;28;20494;-83
2023/08/24 12:48:33;;;;;;;5.13;4.70;;;34.00;1.00;;;;;;4998083;28;20425;-83